sensor_id;sensor_type;location;lat;lon;timestamp;pressure;altitude;pressure_sealevel;temperature;humidity
33697;BME280;20031;43.416;23.232;2023-03-14T00:00:45;100274.84;;;3.40;69.35
33697;BME280;20031;43.416;23.232;2023-03-14T00:03:10;100269.00;;;3.38;69.43
33697;BME280;20031;43.416;23.232;2023-03-14T00:05:36;100266.47;;;3.25;69.08
33697;BME280;20031;43.416;23.232;2023-03-14T00:08:01;100271.25;;;3.19;69.66
33697;BME280;20031;43.416;23.232;2023-03-14T00:10:26;100266.94;;;3.07;69.57
33697;BME280;20031;43.416;23.232;2023-03-14T00:12:52;100254.41;;;3.03;69.95
33697;BME280;20031;43.416;23.232;2023-03-14T00:15:17;100255.31;;;3.02;69.88
33697;BME280;20031;43.416;23.232;2023-03-14T00:17:43;100247.91;;;2.97;70.14
33697;BME280;20031;43.416;23.232;2023-03-14T00:20:09;100245.69;;;2.93;70.34
33697;BME280;20031;43.416;23.232;2023-03-14T00:22:37;100240.16;;;2.86;70.44
33697;BME280;20031;43.416;23.232;2023-03-14T00:25:04;100249.81;;;2.83;70.12
33697;BME280;20031;43.416;23.232;2023-03-14T00:27:31;100245.41;;;2.72;70.45
33697;BME280;20031;43.416;23.232;2023-03-14T00:29:56;100240.38;;;2.71;71.43
33697;BME280;20031;43.416;23.232;2023-03-14T00:32:22;100234.81;;;2.77;71.58
33697;BME280;20031;43.416;23.232;2023-03-14T00:34:47;100234.69;;;2.78;71.17
33697;BME280;20031;43.416;23.232;2023-03-14T00:37:13;100230.47;;;2.77;71.11
33697;BME280;20031;43.416;23.232;2023-03-14T00:39:38;100225.97;;;2.81;71.75
33697;BME280;20031;43.416;23.232;2023-03-14T00:42:04;100229.88;;;2.86;71.88
33697;BME280;20031;43.416;23.232;2023-03-14T00:44:29;100230.34;;;2.91;71.86
33697;BME280;20031;43.416;23.232;2023-03-14T00:46:55;100214.94;;;2.91;71.56
33697;BME280;20031;43.416;23.232;2023-03-14T00:49:20;100207.84;;;2.95;71.95
33697;BME280;20031;43.416;23.232;2023-03-14T00:51:46;100201.63;;;2.97;71.49
33697;BME280;20031;43.416;23.232;2023-03-14T00:54:11;100197.91;;;3.01;71.75
33697;BME280;20031;43.416;23.232;2023-03-14T00:56:37;100181.69;;;3.01;71.70
33697;BME280;20031;43.416;23.232;2023-03-14T00:59:02;100180.84;;;3.00;70.89
33697;BME280;20031;43.416;23.232;2023-03-14T01:01:27;100172.66;;;2.95;71.32
33697;BME280;20031;43.416;23.232;2023-03-14T01:03:54;100169.44;;;2.92;70.74
33697;BME280;20031;43.416;23.232;2023-03-14T01:06:23;100168.16;;;2.86;71.39
33697;BME280;20031;43.416;23.232;2023-03-14T01:08:49;100160.16;;;2.78;71.38
33697;BME280;20031;43.416;23.232;2023-03-14T01:11:22;100164.41;;;2.67;71.20
33697;BME280;20031;43.416;23.232;2023-03-14T01:13:48;100151.53;;;2.67;71.56
33697;BME280;20031;43.416;23.232;2023-03-14T01:16:15;100150.50;;;2.69;71.56
33697;BME280;20031;43.416;23.232;2023-03-14T01:18:42;100154.00;;;2.68;71.71
33697;BME280;20031;43.416;23.232;2023-03-14T01:21:17;100148.75;;;2.70;72.01
33697;BME280;20031;43.416;23.232;2023-03-14T01:23:44;100144.22;;;2.73;71.97
33697;BME280;20031;43.416;23.232;2023-03-14T01:26:11;100151.50;;;2.79;72.02
33697;BME280;20031;43.416;23.232;2023-03-14T01:28:37;100138.34;;;2.84;71.79
33697;BME280;20031;43.416;23.232;2023-03-14T01:31:08;100127.31;;;2.82;71.12
33697;BME280;20031;43.416;23.232;2023-03-14T01:33:34;100134.44;;;2.78;71.56
33697;BME280;20031;43.416;23.232;2023-03-14T01:36:00;100127.19;;;2.83;71.36
33697;BME280;20031;43.416;23.232;2023-03-14T01:38:28;100130.28;;;2.88;71.30
33697;BME280;20031;43.416;23.232;2023-03-14T01:40:53;100125.38;;;2.85;71.26
33697;BME280;20031;43.416;23.232;2023-03-14T01:43:19;100127.44;;;2.80;70.99
33697;BME280;20031;43.416;23.232;2023-03-14T01:48:25;100128.16;;;2.82;71.01
33697;BME280;20031;43.416;23.232;2023-03-14T01:50:53;100127.94;;;2.85;70.89
33697;BME280;20031;43.416;23.232;2023-03-14T01:53:19;100136.78;;;2.81;70.77
33697;BME280;20031;43.416;23.232;2023-03-14T01:55:50;100133.00;;;2.74;70.48
33697;BME280;20031;43.416;23.232;2023-03-14T01:58:18;100135.50;;;2.63;70.26
33697;BME280;20031;43.416;23.232;2023-03-14T02:00:45;100130.09;;;2.55;70.29
33697;BME280;20031;43.416;23.232;2023-03-14T02:03:14;100129.38;;;2.53;70.48
33697;BME280;20031;43.416;23.232;2023-03-14T02:05:42;100126.91;;;2.52;70.76
33697;BME280;20031;43.416;23.232;2023-03-14T02:08:11;100132.03;;;2.52;70.81
33697;BME280;20031;43.416;23.232;2023-03-14T02:10:41;100130.53;;;2.50;70.94
33697;BME280;20031;43.416;23.232;2023-03-14T02:13:08;100130.44;;;2.39;70.75
33697;BME280;20031;43.416;23.232;2023-03-14T02:15:34;100143.81;;;2.31;71.03
33697;BME280;20031;43.416;23.232;2023-03-14T02:18:02;100136.91;;;2.19;70.90
33697;BME280;20031;43.416;23.232;2023-03-14T02:20:34;100124.81;;;2.09;71.53
33697;BME280;20031;43.416;23.232;2023-03-14T02:23:02;100119.38;;;2.01;71.74
33697;BME280;20031;43.416;23.232;2023-03-14T02:25:40;100122.56;;;1.92;72.13
33697;BME280;20031;43.416;23.232;2023-03-14T02:28:09;100117.97;;;1.85;72.12
33697;BME280;20031;43.416;23.232;2023-03-14T02:30:34;100125.22;;;1.78;72.37
33697;BME280;20031;43.416;23.232;2023-03-14T02:33:07;100126.56;;;1.71;72.28
33697;BME280;20031;43.416;23.232;2023-03-14T02:35:43;100127.06;;;1.64;73.16
33697;BME280;20031;43.416;23.232;2023-03-14T02:40:46;100141.88;;;1.60;73.83
33697;BME280;20031;43.416;23.232;2023-03-14T02:43:11;100137.97;;;1.67;74.15
33697;BME280;20031;43.416;23.232;2023-03-14T02:45:43;100142.81;;;1.72;74.22
33697;BME280;20031;43.416;23.232;2023-03-14T02:48:16;100146.06;;;1.74;73.93
33697;BME280;20031;43.416;23.232;2023-03-14T02:50:45;100162.09;;;1.77;74.16
33697;BME280;20031;43.416;23.232;2023-03-14T02:53:15;100158.91;;;1.74;74.33
33697;BME280;20031;43.416;23.232;2023-03-14T02:55:45;100169.91;;;1.76;74.29
33697;BME280;20031;43.416;23.232;2023-03-14T02:58:10;100170.13;;;1.73;74.32
33697;BME280;20031;43.416;23.232;2023-03-14T03:00:36;100157.28;;;1.73;74.02
33697;BME280;20031;43.416;23.232;2023-03-14T03:03:01;100156.78;;;1.80;74.55
33697;BME280;20031;43.416;23.232;2023-03-14T03:05:27;100159.22;;;1.82;74.58
33697;BME280;20031;43.416;23.232;2023-03-14T03:07:52;100153.09;;;1.84;74.62
33697;BME280;20031;43.416;23.232;2023-03-14T03:10:18;100156.16;;;1.89;74.34
33697;BME280;20031;43.416;23.232;2023-03-14T03:12:43;100156.25;;;1.88;74.56
33697;BME280;20031;43.416;23.232;2023-03-14T03:15:09;100157.91;;;1.89;74.20
33697;BME280;20031;43.416;23.232;2023-03-14T03:17:35;100147.63;;;1.89;73.97
33697;BME280;20031;43.416;23.232;2023-03-14T03:20:00;100150.81;;;1.92;74.44
33697;BME280;20031;43.416;23.232;2023-03-14T03:22:26;100145.25;;;1.98;74.63
33697;BME280;20031;43.416;23.232;2023-03-14T03:24:51;100145.03;;;2.01;74.31
33697;BME280;20031;43.416;23.232;2023-03-14T03:27:16;100138.09;;;2.03;74.28
33697;BME280;20031;43.416;23.232;2023-03-14T03:29:42;100133.88;;;2.02;74.34
33697;BME280;20031;43.416;23.232;2023-03-14T03:32:07;100133.16;;;2.00;74.01
33697;BME280;20031;43.416;23.232;2023-03-14T03:34:33;100137.06;;;1.93;73.81
33697;BME280;20031;43.416;23.232;2023-03-14T03:36:58;100130.28;;;1.92;73.85
33697;BME280;20031;43.416;23.232;2023-03-14T03:39:24;100132.25;;;1.89;73.71
33697;BME280;20031;43.416;23.232;2023-03-14T03:41:49;100118.66;;;1.87;73.97
33697;BME280;20031;43.416;23.232;2023-03-14T03:44:14;100125.34;;;1.89;73.87
33697;BME280;20031;43.416;23.232;2023-03-14T03:46:40;100118.34;;;1.91;73.56
33697;BME280;20031;43.416;23.232;2023-03-14T03:49:05;100124.22;;;1.93;74.18
33697;BME280;20031;43.416;23.232;2023-03-14T03:51:31;100122.34;;;1.95;73.82
33697;BME280;20031;43.416;23.232;2023-03-14T03:53:56;100119.19;;;1.92;73.51
33697;BME280;20031;43.416;23.232;2023-03-14T03:56:22;100109.63;;;1.94;73.60
33697;BME280;20031;43.416;23.232;2023-03-14T03:58:47;100109.53;;;1.95;73.65
33697;BME280;20031;43.416;23.232;2023-03-14T04:01:13;100106.16;;;1.95;73.49
33697;BME280;20031;43.416;23.232;2023-03-14T04:03:38;100101.94;;;1.94;73.20
33697;BME280;20031;43.416;23.232;2023-03-14T04:06:10;100100.19;;;1.94;73.15
33697;BME280;20031;43.416;23.232;2023-03-14T04:08:36;100102.03;;;1.92;73.28
33697;BME280;20031;43.416;23.232;2023-03-14T04:11:03;100102.94;;;1.91;72.99
33697;BME280;20031;43.416;23.232;2023-03-14T04:13:29;100093.63;;;1.90;73.05
33697;BME280;20031;43.416;23.232;2023-03-14T04:15:54;100091.88;;;1.91;73.51
33697;BME280;20031;43.416;23.232;2023-03-14T04:18:21;100097.41;;;1.85;72.92
33697;BME280;20031;43.416;23.232;2023-03-14T04:20:54;100092.81;;;1.77;73.01
33697;BME280;20031;43.416;23.232;2023-03-14T04:23:21;100092.50;;;1.69;72.91
33697;BME280;20031;43.416;23.232;2023-03-14T04:25:50;100089.31;;;1.66;73.16
33697;BME280;20031;43.416;23.232;2023-03-14T04:28:15;100092.69;;;1.66;73.13
33697;BME280;20031;43.416;23.232;2023-03-14T04:30:40;100081.91;;;1.61;72.90
33697;BME280;20031;43.416;23.232;2023-03-14T04:33:06;100084.88;;;1.55;72.95
33697;BME280;20031;43.416;23.232;2023-03-14T04:35:33;100092.09;;;1.51;73.00
33697;BME280;20031;43.416;23.232;2023-03-14T04:37:58;100087.16;;;1.48;73.41
33697;BME280;20031;43.416;23.232;2023-03-14T04:40:24;100087.66;;;1.52;73.41
33697;BME280;20031;43.416;23.232;2023-03-14T04:42:50;100092.09;;;1.51;73.89
33697;BME280;20031;43.416;23.232;2023-03-14T04:45:15;100104.81;;;1.52;73.82
33697;BME280;20031;43.416;23.232;2023-03-14T04:47:41;100102.13;;;1.53;74.17
33697;BME280;20031;43.416;23.232;2023-03-14T04:50:07;100101.50;;;1.50;74.15
33697;BME280;20031;43.416;23.232;2023-03-14T04:52:33;100094.66;;;1.51;74.27
33697;BME280;20031;43.416;23.232;2023-03-14T04:54:58;100105.81;;;1.50;74.48
33697;BME280;20031;43.416;23.232;2023-03-14T04:57:24;100107.69;;;1.48;74.15
33697;BME280;20031;43.416;23.232;2023-03-14T04:59:49;100097.72;;;1.43;74.71
33697;BME280;20031;43.416;23.232;2023-03-14T05:02:14;100102.00;;;1.43;74.26
33697;BME280;20031;43.416;23.232;2023-03-14T05:04:40;100100.28;;;1.43;74.61
33697;BME280;20031;43.416;23.232;2023-03-14T05:07:05;100105.41;;;1.43;74.81
33697;BME280;20031;43.416;23.232;2023-03-14T05:09:31;100107.47;;;1.51;75.01
33697;BME280;20031;43.416;23.232;2023-03-14T05:11:56;100103.03;;;1.52;74.70
33697;BME280;20031;43.416;23.232;2023-03-14T05:14:21;100108.47;;;1.48;74.07
33697;BME280;20031;43.416;23.232;2023-03-14T05:16:47;100111.25;;;1.45;74.03
33697;BME280;20031;43.416;23.232;2023-03-14T05:19:12;100113.81;;;1.45;74.23
33697;BME280;20031;43.416;23.232;2023-03-14T05:21:38;100112.59;;;1.51;74.33
33697;BME280;20031;43.416;23.232;2023-03-14T05:24:03;100111.47;;;1.54;74.56
33697;BME280;20031;43.416;23.232;2023-03-14T05:26:29;100107.16;;;1.55;74.26
33697;BME280;20031;43.416;23.232;2023-03-14T05:28:54;100108.91;;;1.54;74.03
33697;BME280;20031;43.416;23.232;2023-03-14T05:31:20;100111.06;;;1.60;74.66
33697;BME280;20031;43.416;23.232;2023-03-14T05:33:45;100097.63;;;1.69;74.47
33697;BME280;20031;43.416;23.232;2023-03-14T05:36:11;100109.13;;;1.76;74.59
33697;BME280;20031;43.416;23.232;2023-03-14T05:38:37;100115.06;;;1.77;74.01
33697;BME280;20031;43.416;23.232;2023-03-14T05:41:02;100110.84;;;1.88;74.21
33697;BME280;20031;43.416;23.232;2023-03-14T05:43:28;100115.88;;;2.02;74.07
33697;BME280;20031;43.416;23.232;2023-03-14T05:45:53;100125.94;;;2.17;73.79
33697;BME280;20031;43.416;23.232;2023-03-14T05:48:18;100126.09;;;2.39;73.68
33697;BME280;20031;43.416;23.232;2023-03-14T05:50:44;100125.31;;;2.62;73.89
33697;BME280;20031;43.416;23.232;2023-03-14T05:53:09;100122.78;;;2.85;73.48
33697;BME280;20031;43.416;23.232;2023-03-14T05:55:35;100124.03;;;3.03;72.97
33697;BME280;20031;43.416;23.232;2023-03-14T05:58:00;100120.44;;;3.29;72.79
33697;BME280;20031;43.416;23.232;2023-03-14T06:00:26;100121.34;;;3.62;72.34
33697;BME280;20031;43.416;23.232;2023-03-14T06:02:51;100116.25;;;3.95;72.33
33697;BME280;20031;43.416;23.232;2023-03-14T06:05:17;100116.72;;;4.10;70.50
33697;BME280;20031;43.416;23.232;2023-03-14T06:07:42;100114.84;;;4.34;70.02
33697;BME280;20031;43.416;23.232;2023-03-14T06:10:08;100105.09;;;4.49;69.38
33697;BME280;20031;43.416;23.232;2023-03-14T06:12:34;100106.81;;;4.70;68.43
33697;BME280;20031;43.416;23.232;2023-03-14T06:14:59;100095.38;;;4.94;68.67
33697;BME280;20031;43.416;23.232;2023-03-14T06:17:25;100087.69;;;5.14;67.88
33697;BME280;20031;43.416;23.232;2023-03-14T06:19:50;100080.22;;;5.32;67.39
33697;BME280;20031;43.416;23.232;2023-03-14T06:22:16;100093.81;;;5.34;66.39
33697;BME280;20031;43.416;23.232;2023-03-14T06:24:41;100104.00;;;5.35;65.58
33697;BME280;20031;43.416;23.232;2023-03-14T06:27:07;100092.69;;;5.47;65.79
33697;BME280;20031;43.416;23.232;2023-03-14T06:29:32;100078.38;;;5.63;65.69
33697;BME280;20031;43.416;23.232;2023-03-14T06:31:58;100085.19;;;5.85;66.00
33697;BME280;20031;43.416;23.232;2023-03-14T06:34:23;100075.22;;;6.01;64.38
33697;BME280;20031;43.416;23.232;2023-03-14T06:36:49;100075.25;;;6.10;63.53
33697;BME280;20031;43.416;23.232;2023-03-14T06:39:14;100078.44;;;6.23;63.37
33697;BME280;20031;43.416;23.232;2023-03-14T06:41:39;100073.22;;;6.43;62.81
33697;BME280;20031;43.416;23.232;2023-03-14T06:44:05;100078.13;;;6.56;62.58
33697;BME280;20031;43.416;23.232;2023-03-14T06:46:30;100059.75;;;6.58;62.79
33697;BME280;20031;43.416;23.232;2023-03-14T06:48:56;100058.38;;;6.64;62.65
33697;BME280;20031;43.416;23.232;2023-03-14T06:51:22;100063.47;;;6.84;62.77
33697;BME280;20031;43.416;23.232;2023-03-14T06:53:47;100063.63;;;7.11;62.25
33697;BME280;20031;43.416;23.232;2023-03-14T06:56:12;100065.50;;;7.28;61.75
33697;BME280;20031;43.416;23.232;2023-03-14T06:58:38;100061.00;;;7.39;61.10
33697;BME280;20031;43.416;23.232;2023-03-14T07:01:03;100058.69;;;7.55;60.56
33697;BME280;20031;43.416;23.232;2023-03-14T07:03:29;100057.13;;;7.71;60.33
33697;BME280;20031;43.416;23.232;2023-03-14T07:05:54;100052.16;;;7.87;59.74
33697;BME280;20031;43.416;23.232;2023-03-14T07:08:20;100049.81;;;8.03;59.35
33697;BME280;20031;43.416;23.232;2023-03-14T07:10:46;100052.47;;;8.20;58.65
33697;BME280;20031;43.416;23.232;2023-03-14T07:13:12;100052.38;;;8.39;58.09
33697;BME280;20031;43.416;23.232;2023-03-14T07:15:37;100045.59;;;8.56;57.81
33697;BME280;20031;43.416;23.232;2023-03-14T07:18:02;100049.03;;;8.73;56.78
33697;BME280;20031;43.416;23.232;2023-03-14T07:20:28;100048.06;;;8.74;56.23
33697;BME280;20031;43.416;23.232;2023-03-14T07:22:54;100040.13;;;8.93;56.17
33697;BME280;20031;43.416;23.232;2023-03-14T07:25:20;100031.22;;;9.13;55.53
33697;BME280;20031;43.416;23.232;2023-03-14T07:27:46;100024.84;;;9.25;55.40
33697;BME280;20031;43.416;23.232;2023-03-14T07:30:13;100021.88;;;9.45;54.88
33697;BME280;20031;43.416;23.232;2023-03-14T07:32:39;100027.84;;;9.63;53.97
33697;BME280;20031;43.416;23.232;2023-03-14T07:35:05;100025.53;;;9.85;54.41
33697;BME280;20031;43.416;23.232;2023-03-14T07:37:30;100017.09;;;10.09;53.75
33697;BME280;20031;43.416;23.232;2023-03-14T07:39:56;100025.91;;;10.16;53.02
33697;BME280;20031;43.416;23.232;2023-03-14T07:42:21;100020.03;;;10.14;52.66
33697;BME280;20031;43.416;23.232;2023-03-14T07:44:46;100014.03;;;10.21;52.87
33697;BME280;20031;43.416;23.232;2023-03-14T07:47:12;100010.88;;;10.43;52.65
33697;BME280;20031;43.416;23.232;2023-03-14T07:49:37;100000.50;;;10.59;52.18
33697;BME280;20031;43.416;23.232;2023-03-14T07:52:03;100008.16;;;10.76;51.71
33697;BME280;20031;43.416;23.232;2023-03-14T07:54:28;100004.44;;;10.94;51.51
33697;BME280;20031;43.416;23.232;2023-03-14T07:56:54;100000.22;;;11.09;50.72
33697;BME280;20031;43.416;23.232;2023-03-14T07:59:20;99996.13;;;11.22;50.41
33697;BME280;20031;43.416;23.232;2023-03-14T08:01:45;99996.13;;;11.30;50.34
33697;BME280;20031;43.416;23.232;2023-03-14T08:04:11;99991.06;;;11.37;49.63
33697;BME280;20031;43.416;23.232;2023-03-14T08:06:37;99992.41;;;11.49;49.61
33697;BME280;20031;43.416;23.232;2023-03-14T08:09:03;99994.31;;;11.71;49.46
33697;BME280;20031;43.416;23.232;2023-03-14T08:11:28;99994.94;;;11.72;49.06
33697;BME280;20031;43.416;23.232;2023-03-14T08:13:54;99989.19;;;11.93;49.24
33697;BME280;20031;43.416;23.232;2023-03-14T08:16:20;99983.03;;;12.24;48.99
33697;BME280;20031;43.416;23.232;2023-03-14T08:18:45;99986.69;;;12.37;48.25
33697;BME280;20031;43.416;23.232;2023-03-14T08:21:11;99981.38;;;12.53;48.58
33697;BME280;20031;43.416;23.232;2023-03-14T08:23:37;99974.53;;;12.74;47.53
33697;BME280;20031;43.416;23.232;2023-03-14T08:26:02;99965.97;;;12.88;47.52
33697;BME280;20031;43.416;23.232;2023-03-14T08:28:28;99964.09;;;12.97;46.72
33697;BME280;20031;43.416;23.232;2023-03-14T08:30:56;99964.59;;;13.00;45.68
33697;BME280;20031;43.416;23.232;2023-03-14T08:33:23;99956.25;;;13.19;45.54
33697;BME280;20031;43.416;23.232;2023-03-14T08:35:52;99956.88;;;13.35;45.53
33697;BME280;20031;43.416;23.232;2023-03-14T08:38:18;99960.59;;;13.55;45.25
33697;BME280;20031;43.416;23.232;2023-03-14T08:40:43;99952.25;;;13.60;44.82
33697;BME280;20031;43.416;23.232;2023-03-14T08:43:08;99943.75;;;13.58;44.44
33697;BME280;20031;43.416;23.232;2023-03-14T08:45:34;99949.59;;;13.45;43.89
33697;BME280;20031;43.416;23.232;2023-03-14T08:47:59;99945.56;;;13.43;43.90
33697;BME280;20031;43.416;23.232;2023-03-14T08:50:25;99941.84;;;13.37;44.50
33697;BME280;20031;43.416;23.232;2023-03-14T08:52:50;99937.09;;;13.70;44.53
33697;BME280;20031;43.416;23.232;2023-03-14T08:55:16;99935.81;;;13.80;43.89
33697;BME280;20031;43.416;23.232;2023-03-14T08:57:41;99931.81;;;13.98;43.74
33697;BME280;20031;43.416;23.232;2023-03-14T09:00:07;99926.59;;;13.98;43.41
33697;BME280;20031;43.416;23.232;2023-03-14T09:02:37;99914.66;;;14.10;42.82
33697;BME280;20031;43.416;23.232;2023-03-14T09:05:03;99907.88;;;14.01;42.09
33697;BME280;20031;43.416;23.232;2023-03-14T09:07:29;99900.59;;;14.11;41.83
33697;BME280;20031;43.416;23.232;2023-03-14T09:09:54;99890.84;;;14.26;41.70
33697;BME280;20031;43.416;23.232;2023-03-14T09:12:20;99878.72;;;14.39;41.17
33697;BME280;20031;43.416;23.232;2023-03-14T09:14:45;99887.13;;;14.77;41.29
33697;BME280;20031;43.416;23.232;2023-03-14T09:17:11;99877.41;;;14.98;40.79
33697;BME280;20031;43.416;23.232;2023-03-14T09:19:36;99870.97;;;15.21;40.83
33697;BME280;20031;43.416;23.232;2023-03-14T09:22:02;99862.84;;;15.50;40.87
33697;BME280;20031;43.416;23.232;2023-03-14T09:24:28;99869.09;;;15.49;39.28
33697;BME280;20031;43.416;23.232;2023-03-14T09:26:55;99870.41;;;15.32;39.56
33697;BME280;20031;43.416;23.232;2023-03-14T09:29:21;99862.28;;;15.21;39.59
33697;BME280;20031;43.416;23.232;2023-03-14T09:31:47;99857.16;;;15.13;39.80
33697;BME280;20031;43.416;23.232;2023-03-14T09:34:13;99850.59;;;14.96;40.48
33697;BME280;20031;43.416;23.232;2023-03-14T09:36:38;99840.19;;;15.09;41.09
33697;BME280;20031;43.416;23.232;2023-03-14T09:39:05;99834.75;;;15.17;40.57
33697;BME280;20031;43.416;23.232;2023-03-14T09:41:34;99829.59;;;15.23;40.20
33697;BME280;20031;43.416;23.232;2023-03-14T09:44:05;99823.63;;;15.42;40.89
33697;BME280;20031;43.416;23.232;2023-03-14T09:46:35;99817.72;;;15.74;40.08
33697;BME280;20031;43.416;23.232;2023-03-14T09:49:01;99807.22;;;15.74;39.98
33697;BME280;20031;43.416;23.232;2023-03-14T09:51:27;99811.41;;;15.62;39.70
33697;BME280;20031;43.416;23.232;2023-03-14T09:53:53;99809.03;;;15.73;39.23
33697;BME280;20031;43.416;23.232;2023-03-14T09:56:21;99812.59;;;15.59;40.02
33697;BME280;20031;43.416;23.232;2023-03-14T09:58:58;99816.31;;;15.78;39.72
33697;BME280;20031;43.416;23.232;2023-03-14T10:01:30;99816.16;;;15.92;39.33
33697;BME280;20031;43.416;23.232;2023-03-14T10:03:58;99805.25;;;15.88;39.01
33697;BME280;20031;43.416;23.232;2023-03-14T10:06:30;99803.63;;;16.00;39.29
33697;BME280;20031;43.416;23.232;2023-03-14T10:08:56;99799.41;;;16.06;38.99
33697;BME280;20031;43.416;23.232;2023-03-14T10:11:22;99798.63;;;16.05;38.01
33697;BME280;20031;43.416;23.232;2023-03-14T10:14:11;99786.91;;;16.08;38.61
33697;BME280;20031;43.416;23.232;2023-03-14T10:16:42;99774.97;;;16.05;38.16
33697;BME280;20031;43.416;23.232;2023-03-14T10:19:16;99768.06;;;15.85;38.37
33697;BME280;20031;43.416;23.232;2023-03-14T10:21:51;99762.00;;;15.91;38.49
33697;BME280;20031;43.416;23.232;2023-03-14T10:26:53;99750.16;;;16.46;37.93
33697;BME280;20031;43.416;23.232;2023-03-14T10:29:19;99744.47;;;16.82;37.33
33697;BME280;20031;43.416;23.232;2023-03-14T10:31:51;99746.44;;;16.92;36.52
33697;BME280;20031;43.416;23.232;2023-03-14T10:34:25;99736.06;;;17.17;36.10
33697;BME280;20031;43.416;23.232;2023-03-14T10:36:55;99734.81;;;17.19;35.21
33697;BME280;20031;43.416;23.232;2023-03-14T10:39:24;99744.16;;;17.15;34.81
33697;BME280;20031;43.416;23.232;2023-03-14T10:41:53;99731.84;;;16.96;35.51
33697;BME280;20031;43.416;23.232;2023-03-14T10:44:23;99721.06;;;17.17;34.57
33697;BME280;20031;43.416;23.232;2023-03-14T10:47:04;99706.19;;;17.42;35.19
33697;BME280;20031;43.416;23.232;2023-03-14T10:49:35;99701.63;;;17.18;34.61
33697;BME280;20031;43.416;23.232;2023-03-14T10:52:15;99700.19;;;17.29;35.27
33697;BME280;20031;43.416;23.232;2023-03-14T10:54:40;99689.69;;;17.22;34.82
33697;BME280;20031;43.416;23.232;2023-03-14T10:57:06;99685.28;;;17.10;34.71
33697;BME280;20031;43.416;23.232;2023-03-14T10:59:37;99675.97;;;17.07;35.16
33697;BME280;20031;43.416;23.232;2023-03-14T11:02:21;99663.41;;;17.09;35.20
33697;BME280;20031;43.416;23.232;2023-03-14T11:07:43;99655.91;;;17.06;34.64
33697;BME280;20031;43.416;23.232;2023-03-14T11:10:11;99641.91;;;17.19;34.55
33697;BME280;20031;43.416;23.232;2023-03-14T11:12:59;99633.41;;;17.23;34.68
33697;BME280;20031;43.416;23.232;2023-03-14T11:16:14;99624.84;;;17.34;34.27
33697;BME280;20031;43.416;23.232;2023-03-14T11:26:55;99598.25;;;18.39;33.25
33697;BME280;20031;43.416;23.232;2023-03-14T11:29:43;99596.31;;;18.28;32.72
33697;BME280;20031;43.416;23.232;2023-03-14T11:32:18;99592.66;;;18.29;32.26
33697;BME280;20031;43.416;23.232;2023-03-14T11:34:50;99584.09;;;18.16;32.56
33697;BME280;20031;43.416;23.232;2023-03-14T11:37:47;99575.16;;;18.35;32.25
33697;BME280;20031;43.416;23.232;2023-03-14T11:40:14;99567.63;;;18.20;32.16
33697;BME280;20031;43.416;23.232;2023-03-14T11:42:43;99561.75;;;17.94;32.50
33697;BME280;20031;43.416;23.232;2023-03-14T11:45:27;99549.28;;;18.07;32.94
33697;BME280;20031;43.416;23.232;2023-03-14T11:50:42;99547.91;;;17.81;33.41
33697;BME280;20031;43.416;23.232;2023-03-14T11:53:19;99538.75;;;17.59;33.09
33697;BME280;20031;43.416;23.232;2023-03-14T11:55:47;99528.72;;;17.49;33.89
33697;BME280;20031;43.416;23.232;2023-03-14T11:58:27;99528.63;;;17.38;34.53
33697;BME280;20031;43.416;23.232;2023-03-14T12:00:57;99523.59;;;17.30;35.01
33697;BME280;20031;43.416;23.232;2023-03-14T12:11:40;99508.66;;;16.93;35.58
33697;BME280;20031;43.416;23.232;2023-03-14T12:14:21;99509.81;;;16.67;35.70
33697;BME280;20031;43.416;23.232;2023-03-14T12:16:48;99503.41;;;16.56;35.76
33697;BME280;20031;43.416;23.232;2023-03-14T12:19:26;99493.72;;;16.50;36.14
33697;BME280;20031;43.416;23.232;2023-03-14T12:22:05;99482.03;;;16.40;35.88
33697;BME280;20031;43.416;23.232;2023-03-14T12:24:36;99482.84;;;16.40;36.43
33697;BME280;20031;43.416;23.232;2023-03-14T12:27:05;99477.13;;;16.50;36.19
33697;BME280;20031;43.416;23.232;2023-03-14T12:29:32;99463.81;;;16.45;36.75
33697;BME280;20031;43.416;23.232;2023-03-14T12:34:31;99466.00;;;16.54;36.46
33697;BME280;20031;43.416;23.232;2023-03-14T12:39:57;99455.13;;;16.44;36.77
33697;BME280;20031;43.416;23.232;2023-03-14T12:45:25;99440.16;;;16.45;37.31
33697;BME280;20031;43.416;23.232;2023-03-14T12:48:30;99438.81;;;16.67;37.47
33697;BME280;20031;43.416;23.232;2023-03-14T12:51:13;99431.25;;;16.77;37.17
33697;BME280;20031;43.416;23.232;2023-03-14T13:04:54;99410.13;;;17.14;36.77
33697;BME280;20031;43.416;23.232;2023-03-14T13:10:00;99389.28;;;17.12;36.83
33697;BME280;20031;43.416;23.232;2023-03-14T13:12:37;99392.19;;;17.04;37.30
33697;BME280;20031;43.416;23.232;2023-03-14T13:15:17;99379.16;;;16.91;37.75
33697;BME280;20031;43.416;23.232;2023-03-14T13:17:46;99379.09;;;16.98;37.70
33697;BME280;20031;43.416;23.232;2023-03-14T13:20:18;99372.66;;;16.94;37.30
33697;BME280;20031;43.416;23.232;2023-03-14T13:22:47;99365.88;;;17.04;38.35
33697;BME280;20031;43.416;23.232;2023-03-14T13:25:13;99365.88;;;17.04;38.23
33697;BME280;20031;43.416;23.232;2023-03-14T13:27:40;99352.28;;;17.07;37.70
33697;BME280;20031;43.416;23.232;2023-03-14T13:30:26;99347.78;;;17.14;37.89
33697;BME280;20031;43.416;23.232;2023-03-14T13:32:53;99353.63;;;17.16;37.74
33697;BME280;20031;43.416;23.232;2023-03-14T13:35:28;99345.88;;;17.21;37.55
33697;BME280;20031;43.416;23.232;2023-03-14T13:38:01;99329.63;;;17.06;37.30
33697;BME280;20031;43.416;23.232;2023-03-14T13:40:34;99328.88;;;16.99;37.46
33697;BME280;20031;43.416;23.232;2023-03-14T13:43:02;99328.13;;;16.92;37.62
33697;BME280;20031;43.416;23.232;2023-03-14T13:45:29;99313.00;;;16.88;38.01